sensor_id;sensor_type;location;lat;lon;timestamp;P1;durP1;ratioP1;P2;durP2;ratioP2
609;SDS011;292;48.800;9.216;2022-09-01T00:00:47;20.53;;;12.27;;
609;SDS011;292;48.800;9.216;2022-09-01T00:03:15;25.27;;;14.07;;
609;SDS011;292;48.800;9.216;2022-09-01T00:05:42;22.57;;;13.70;;
609;SDS011;292;48.800;9.216;2022-09-01T00:08:10;19.47;;;13.40;;
609;SDS011;292;48.800;9.216;2022-09-01T00:10:37;21.90;;;12.90;;
609;SDS011;292;48.800;9.216;2022-09-01T00:13:05;19.10;;;12.83;;
609;SDS011;292;48.800;9.216;2022-09-01T00:15:33;21.50;;;13.83;;
609;SDS011;292;48.800;9.216;2022-09-01T00:18:03;18.40;;;12.67;;
609;SDS011;292;48.800;9.216;2022-09-01T00:20:30;23.27;;;13.27;;
609;SDS011;292;48.800;9.216;2022-09-01T00:22:58;26.17;;;15.40;;
609;SDS011;292;48.800;9.216;2022-09-01T00:25:26;18.27;;;11.90;;
609;SDS011;292;48.800;9.216;2022-09-01T00:27:54;17.77;;;12.57;;
609;SDS011;292;48.800;9.216;2022-09-01T00:30:24;21.97;;;13.33;;
609;SDS011;292;48.800;9.216;2022-09-01T00:32:51;21.07;;;12.93;;
609;SDS011;292;48.800;9.216;2022-09-01T00:35:20;19.53;;;12.80;;
609;SDS011;292;48.800;9.216;2022-09-01T00:37:47;20.63;;;12.20;;
609;SDS011;292;48.800;9.216;2022-09-01T00:40:15;19.63;;;12.80;;
609;SDS011;292;48.800;9.216;2022-09-01T00:42:43;23.07;;;12.43;;
609;SDS011;292;48.800;9.216;2022-09-01T00:45:13;18.97;;;11.77;;
609;SDS011;292;48.800;9.216;2022-09-01T00:47:40;19.27;;;12.70;;
609;SDS011;292;48.800;9.216;2022-09-01T00:50:08;16.23;;;10.90;;
609;SDS011;292;48.800;9.216;2022-09-01T00:52:38;20.80;;;11.67;;
609;SDS011;292;48.800;9.216;2022-09-01T00:55:09;21.27;;;11.47;;
609;SDS011;292;48.800;9.216;2022-09-01T00:57:39;20.90;;;12.70;;
609;SDS011;292;48.800;9.216;2022-09-01T01:00:08;20.00;;;11.23;;
609;SDS011;292;48.800;9.216;2022-09-01T01:02:38;20.83;;;11.57;;
609;SDS011;292;48.800;9.216;2022-09-01T01:05:06;19.50;;;11.93;;
609;SDS011;292;48.800;9.216;2022-09-01T01:07:34;25.67;;;11.57;;
609;SDS011;292;48.800;9.216;2022-09-01T01:10:08;20.23;;;11.40;;
609;SDS011;292;48.800;9.216;2022-09-01T01:12:37;21.50;;;12.50;;
609;SDS011;292;48.800;9.216;2022-09-01T01:15:05;24.17;;;13.53;;
609;SDS011;292;48.800;9.216;2022-09-01T01:17:34;17.73;;;11.00;;
609;SDS011;292;48.800;9.216;2022-09-01T01:20:02;17.60;;;10.87;;
609;SDS011;292;48.800;9.216;2022-09-01T01:22:54;21.90;;;11.33;;
609;SDS011;292;48.800;9.216;2022-09-01T01:25:33;14.30;;;9.70;;
609;SDS011;292;48.800;9.216;2022-09-01T01:28:06;17.50;;;10.27;;
609;SDS011;292;48.800;9.216;2022-09-01T01:30:35;16.23;;;10.30;;
609;SDS011;292;48.800;9.216;2022-09-01T01:33:04;17.33;;;10.37;;
609;SDS011;292;48.800;9.216;2022-09-01T01:35:31;13.30;;;9.40;;
609;SDS011;292;48.800;9.216;2022-09-01T01:37:59;18.37;;;9.37;;
609;SDS011;292;48.800;9.216;2022-09-01T01:40:29;13.60;;;8.07;;
609;SDS011;292;48.800;9.216;2022-09-01T01:42:57;13.80;;;8.50;;
609;SDS011;292;48.800;9.216;2022-09-01T01:45:25;14.63;;;10.47;;
609;SDS011;292;48.800;9.216;2022-09-01T01:47:53;13.23;;;8.97;;
609;SDS011;292;48.800;9.216;2022-09-01T01:50:21;14.17;;;8.70;;
609;SDS011;292;48.800;9.216;2022-09-01T01:52:51;14.60;;;9.03;;
609;SDS011;292;48.800;9.216;2022-09-01T01:55:20;13.40;;;8.90;;
609;SDS011;292;48.800;9.216;2022-09-01T01:57:52;11.07;;;8.00;;
609;SDS011;292;48.800;9.216;2022-09-01T02:00:24;14.53;;;9.30;;
609;SDS011;292;48.800;9.216;2022-09-01T02:02:52;14.47;;;9.80;;
609;SDS011;292;48.800;9.216;2022-09-01T02:05:20;12.40;;;8.90;;
609;SDS011;292;48.800;9.216;2022-09-01T02:07:49;15.93;;;9.53;;
609;SDS011;292;48.800;9.216;2022-09-01T02:10:20;18.20;;;10.80;;
609;SDS011;292;48.800;9.216;2022-09-01T02:12:49;16.40;;;10.50;;
609;SDS011;292;48.800;9.216;2022-09-01T02:15:16;17.73;;;11.77;;
609;SDS011;292;48.800;9.216;2022-09-01T02:17:45;16.97;;;10.20;;
609;SDS011;292;48.800;9.216;2022-09-01T02:20:13;15.77;;;10.10;;
609;SDS011;292;48.800;9.216;2022-09-01T02:22:41;21.10;;;10.73;;
609;SDS011;292;48.800;9.216;2022-09-01T02:25:10;17.37;;;10.50;;
609;SDS011;292;48.800;9.216;2022-09-01T02:27:41;17.30;;;11.10;;
609;SDS011;292;48.800;9.216;2022-09-01T02:30:08;19.47;;;12.37;;
609;SDS011;292;48.800;9.216;2022-09-01T02:32:36;19.57;;;11.00;;
609;SDS011;292;48.800;9.216;2022-09-01T02:35:07;19.77;;;12.50;;
609;SDS011;292;48.800;9.216;2022-09-01T02:37:36;18.40;;;11.20;;
609;SDS011;292;48.800;9.216;2022-09-01T02:40:05;24.73;;;13.93;;
609;SDS011;292;48.800;9.216;2022-09-01T02:42:35;21.10;;;13.50;;
609;SDS011;292;48.800;9.216;2022-09-01T02:45:07;17.00;;;10.73;;
609;SDS011;292;48.800;9.216;2022-09-01T02:47:40;18.30;;;10.50;;
609;SDS011;292;48.800;9.216;2022-09-01T02:50:11;17.27;;;10.50;;
609;SDS011;292;48.800;9.216;2022-09-01T02:52:41;29.27;;;11.77;;
609;SDS011;292;48.800;9.216;2022-09-01T02:55:09;18.07;;;10.20;;
609;SDS011;292;48.800;9.216;2022-09-01T02:57:36;20.43;;;11.50;;
609;SDS011;292;48.800;9.216;2022-09-01T03:00:04;28.03;;;11.03;;
609;SDS011;292;48.800;9.216;2022-09-01T03:02:46;18.77;;;10.77;;
609;SDS011;292;48.800;9.216;2022-09-01T03:05:18;22.87;;;11.20;;
609;SDS011;292;48.800;9.216;2022-09-01T03:07:51;22.20;;;13.07;;
609;SDS011;292;48.800;9.216;2022-09-01T03:10:21;21.10;;;12.50;;
609;SDS011;292;48.800;9.216;2022-09-01T03:12:57;17.20;;;10.73;;
609;SDS011;292;48.800;9.216;2022-09-01T03:15:25;25.20;;;13.43;;
609;SDS011;292;48.800;9.216;2022-09-01T03:17:53;21.70;;;12.60;;
609;SDS011;292;48.800;9.216;2022-09-01T03:20:25;17.53;;;10.40;;
609;SDS011;292;48.800;9.216;2022-09-01T03:22:54;20.80;;;11.10;;
609;SDS011;292;48.800;9.216;2022-09-01T03:25:22;15.23;;;10.07;;
609;SDS011;292;48.800;9.216;2022-09-01T03:27:51;14.00;;;9.53;;
609;SDS011;292;48.800;9.216;2022-09-01T03:30:18;14.43;;;9.53;;
609;SDS011;292;48.800;9.216;2022-09-01T03:32:45;13.07;;;8.87;;
609;SDS011;292;48.800;9.216;2022-09-01T03:35:13;14.17;;;8.60;;
609;SDS011;292;48.800;9.216;2022-09-01T03:37:41;16.97;;;10.00;;
609;SDS011;292;48.800;9.216;2022-09-01T03:40:10;15.47;;;10.00;;
609;SDS011;292;48.800;9.216;2022-09-01T03:42:37;17.00;;;9.20;;
609;SDS011;292;48.800;9.216;2022-09-01T03:45:05;12.53;;;9.17;;
609;SDS011;292;48.800;9.216;2022-09-01T03:47:37;13.80;;;8.43;;
609;SDS011;292;48.800;9.216;2022-09-01T03:50:06;17.13;;;9.90;;
609;SDS011;292;48.800;9.216;2022-09-01T03:52:37;15.97;;;9.60;;
609;SDS011;292;48.800;9.216;2022-09-01T03:55:07;13.70;;;9.47;;
609;SDS011;292;48.800;9.216;2022-09-01T03:57:35;14.73;;;10.33;;
609;SDS011;292;48.800;9.216;2022-09-01T04:00:07;15.17;;;10.67;;
609;SDS011;292;48.800;9.216;2022-09-01T04:02:44;16.40;;;10.43;;
609;SDS011;292;48.800;9.216;2022-09-01T04:05:13;16.63;;;11.10;;
609;SDS011;292;48.800;9.216;2022-09-01T04:07:41;16.67;;;8.80;;
609;SDS011;292;48.800;9.216;2022-09-01T04:10:11;14.60;;;9.13;;
609;SDS011;292;48.800;9.216;2022-09-01T04:12:38;16.57;;;10.43;;
609;SDS011;292;48.800;9.216;2022-09-01T04:15:06;16.20;;;11.00;;
609;SDS011;292;48.800;9.216;2022-09-01T04:17:37;14.83;;;10.07;;
609;SDS011;292;48.800;9.216;2022-09-01T04:20:21;15.10;;;10.17;;
609;SDS011;292;48.800;9.216;2022-09-01T04:22:48;15.87;;;10.50;;
609;SDS011;292;48.800;9.216;2022-09-01T04:25:18;14.97;;;9.97;;
609;SDS011;292;48.800;9.216;2022-09-01T04:27:49;14.60;;;9.57;;
609;SDS011;292;48.800;9.216;2022-09-01T04:30:19;16.20;;;10.37;;
609;SDS011;292;48.800;9.216;2022-09-01T04:32:48;17.60;;;10.87;;
609;SDS011;292;48.800;9.216;2022-09-01T04:35:20;16.43;;;9.73;;
609;SDS011;292;48.800;9.216;2022-09-01T04:37:57;17.27;;;11.57;;
609;SDS011;292;48.800;9.216;2022-09-01T04:40:27;17.43;;;10.80;;
609;SDS011;292;48.800;9.216;2022-09-01T04:42:54;16.80;;;11.23;;
609;SDS011;292;48.800;9.216;2022-09-01T04:45:21;18.23;;;11.57;;
609;SDS011;292;48.800;9.216;2022-09-01T04:47:51;18.50;;;11.40;;
609;SDS011;292;48.800;9.216;2022-09-01T04:50:19;15.67;;;10.20;;
609;SDS011;292;48.800;9.216;2022-09-01T04:52:47;18.70;;;11.43;;
609;SDS011;292;48.800;9.216;2022-09-01T04:55:15;16.37;;;10.20;;
609;SDS011;292;48.800;9.216;2022-09-01T04:57:44;16.00;;;10.57;;
609;SDS011;292;48.800;9.216;2022-09-01T05:00:14;15.27;;;10.40;;
609;SDS011;292;48.800;9.216;2022-09-01T05:02:47;16.53;;;10.33;;
609;SDS011;292;48.800;9.216;2022-09-01T05:05:16;15.30;;;10.67;;
609;SDS011;292;48.800;9.216;2022-09-01T05:07:43;14.80;;;10.40;;
609;SDS011;292;48.800;9.216;2022-09-01T05:10:11;14.87;;;9.53;;
609;SDS011;292;48.800;9.216;2022-09-01T05:12:38;15.63;;;9.87;;
609;SDS011;292;48.800;9.216;2022-09-01T05:15:10;19.47;;;11.20;;
609;SDS011;292;48.800;9.216;2022-09-01T05:17:38;16.60;;;11.07;;
609;SDS011;292;48.800;9.216;2022-09-01T05:20:05;21.40;;;11.10;;
609;SDS011;292;48.800;9.216;2022-09-01T05:22:34;18.00;;;11.50;;
609;SDS011;292;48.800;9.216;2022-09-01T05:25:05;18.40;;;11.40;;
609;SDS011;292;48.800;9.216;2022-09-01T05:27:37;20.50;;;11.80;;
609;SDS011;292;48.800;9.216;2022-09-01T05:30:06;20.90;;;13.20;;
609;SDS011;292;48.800;9.216;2022-09-01T05:32:35;17.43;;;11.00;;
609;SDS011;292;48.800;9.216;2022-09-01T05:35:04;26.70;;;11.50;;
609;SDS011;292;48.800;9.216;2022-09-01T05:37:32;22.90;;;11.77;;
609;SDS011;292;48.800;9.216;2022-09-01T05:40:01;20.03;;;11.93;;
609;SDS011;292;48.800;9.216;2022-09-01T05:42:30;18.40;;;11.40;;
609;SDS011;292;48.800;9.216;2022-09-01T05:44:57;18.17;;;11.60;;
609;SDS011;292;48.800;9.216;2022-09-01T05:47:26;19.53;;;12.03;;
609;SDS011;292;48.800;9.216;2022-09-01T05:49:54;25.80;;;13.30;;
609;SDS011;292;48.800;9.216;2022-09-01T05:52:22;15.57;;;9.50;;
609;SDS011;292;48.800;9.216;2022-09-01T05:54:50;23.10;;;12.60;;
609;SDS011;292;48.800;9.216;2022-09-01T05:57:18;19.87;;;12.10;;
609;SDS011;292;48.800;9.216;2022-09-01T05:59:45;16.53;;;11.47;;
609;SDS011;292;48.800;9.216;2022-09-01T06:02:17;20.03;;;12.90;;
609;SDS011;292;48.800;9.216;2022-09-01T06:04:45;23.10;;;13.40;;
609;SDS011;292;48.800;9.216;2022-09-01T06:07:15;22.70;;;12.97;;
609;SDS011;292;48.800;9.216;2022-09-01T06:09:45;24.33;;;12.80;;
609;SDS011;292;48.800;9.216;2022-09-01T06:12:13;21.80;;;13.67;;
609;SDS011;292;48.800;9.216;2022-09-01T06:14:48;19.00;;;11.70;;
609;SDS011;292;48.800;9.216;2022-09-01T06:17:19;17.57;;;12.10;;
609;SDS011;292;48.800;9.216;2022-09-01T06:19:49;23.30;;;13.43;;
609;SDS011;292;48.800;9.216;2022-09-01T06:22:18;23.20;;;13.07;;
609;SDS011;292;48.800;9.216;2022-09-01T06:24:45;22.90;;;13.07;;
609;SDS011;292;48.800;9.216;2022-09-01T06:27:12;20.27;;;12.53;;
609;SDS011;292;48.800;9.216;2022-09-01T06:29:42;30.13;;;14.30;;
609;SDS011;292;48.800;9.216;2022-09-01T06:32:11;23.07;;;13.40;;
609;SDS011;292;48.800;9.216;2022-09-01T06:34:39;29.47;;;13.33;;
609;SDS011;292;48.800;9.216;2022-09-01T06:37:08;21.33;;;14.20;;
609;SDS011;292;48.800;9.216;2022-09-01T06:39:38;23.43;;;15.30;;
609;SDS011;292;48.800;9.216;2022-09-01T06:42:05;21.03;;;12.90;;
609;SDS011;292;48.800;9.216;2022-09-01T06:44:33;22.47;;;13.80;;
609;SDS011;292;48.800;9.216;2022-09-01T06:47:00;26.47;;;13.60;;
609;SDS011;292;48.800;9.216;2022-09-01T06:49:29;21.00;;;13.03;;
609;SDS011;292;48.800;9.216;2022-09-01T06:51:58;21.13;;;13.30;;
609;SDS011;292;48.800;9.216;2022-09-01T06:54:27;18.77;;;12.73;;
609;SDS011;292;48.800;9.216;2022-09-01T06:56:59;19.47;;;12.80;;
609;SDS011;292;48.800;9.216;2022-09-01T06:59:28;24.10;;;14.13;;
609;SDS011;292;48.800;9.216;2022-09-01T07:01:56;25.00;;;13.20;;
609;SDS011;292;48.800;9.216;2022-09-01T07:04:25;23.07;;;12.97;;
609;SDS011;292;48.800;9.216;2022-09-01T07:06:53;28.90;;;15.07;;
609;SDS011;292;48.800;9.216;2022-09-01T07:09:21;28.20;;;17.00;;
609;SDS011;292;48.800;9.216;2022-09-01T07:11:48;22.43;;;12.97;;
609;SDS011;292;48.800;9.216;2022-09-01T07:14:17;18.40;;;12.33;;
609;SDS011;292;48.800;9.216;2022-09-01T07:16:45;19.50;;;12.33;;
609;SDS011;292;48.800;9.216;2022-09-01T07:19:12;17.93;;;11.83;;
609;SDS011;292;48.800;9.216;2022-09-01T07:21:40;17.30;;;11.10;;
609;SDS011;292;48.800;9.216;2022-09-01T07:24:08;19.77;;;12.77;;
609;SDS011;292;48.800;9.216;2022-09-01T07:26:36;15.47;;;10.50;;
609;SDS011;292;48.800;9.216;2022-09-01T07:29:05;19.30;;;10.73;;
609;SDS011;292;48.800;9.216;2022-09-01T07:31:36;18.50;;;11.60;;
609;SDS011;292;48.800;9.216;2022-09-01T07:34:05;18.30;;;11.00;;
609;SDS011;292;48.800;9.216;2022-09-01T07:36:36;18.43;;;11.23;;
609;SDS011;292;48.800;9.216;2022-09-01T07:39:04;22.07;;;11.90;;
609;SDS011;292;48.800;9.216;2022-09-01T07:41:32;18.10;;;10.53;;
609;SDS011;292;48.800;9.216;2022-09-01T07:44:00;16.60;;;10.17;;
609;SDS011;292;48.800;9.216;2022-09-01T07:46:29;16.07;;;10.57;;
609;SDS011;292;48.800;9.216;2022-09-01T07:48:59;12.63;;;9.10;;
609;SDS011;292;48.800;9.216;2022-09-01T07:51:27;16.10;;;9.53;;
609;SDS011;292;48.800;9.216;2022-09-01T07:53:57;11.57;;;8.70;;
609;SDS011;292;48.800;9.216;2022-09-01T07:56:26;12.87;;;8.73;;
609;SDS011;292;48.800;9.216;2022-09-01T07:58:55;15.93;;;9.93;;
609;SDS011;292;48.800;9.216;2022-09-01T08:01:24;27.10;;;14.17;;
609;SDS011;292;48.800;9.216;2022-09-01T08:03:53;20.20;;;13.10;;
609;SDS011;292;48.800;9.216;2022-09-01T08:06:23;11.80;;;8.10;;
609;SDS011;292;48.800;9.216;2022-09-01T08:08:52;13.60;;;8.40;;
609;SDS011;292;48.800;9.216;2022-09-01T08:11:22;11.40;;;8.20;;
609;SDS011;292;48.800;9.216;2022-09-01T08:13:51;12.30;;;7.57;;
609;SDS011;292;48.800;9.216;2022-09-01T08:16:19;12.17;;;7.97;;
609;SDS011;292;48.800;9.216;2022-09-01T08:18:46;13.00;;;8.80;;
609;SDS011;292;48.800;9.216;2022-09-01T08:21:14;12.73;;;8.37;;
609;SDS011;292;48.800;9.216;2022-09-01T08:23:43;10.07;;;7.67;;
609;SDS011;292;48.800;9.216;2022-09-01T08:26:12;10.87;;;7.57;;
609;SDS011;292;48.800;9.216;2022-09-01T08:28:41;10.00;;;6.60;;
609;SDS011;292;48.800;9.216;2022-09-01T08:31:11;10.80;;;7.13;;
609;SDS011;292;48.800;9.216;2022-09-01T08:33:41;13.17;;;7.90;;
609;SDS011;292;48.800;9.216;2022-09-01T08:36:12;14.07;;;8.70;;
609;SDS011;292;48.800;9.216;2022-09-01T08:38:40;13.73;;;7.90;;
609;SDS011;292;48.800;9.216;2022-09-01T08:41:14;10.33;;;7.10;;
609;SDS011;292;48.800;9.216;2022-09-01T08:43:49;12.87;;;7.50;;
609;SDS011;292;48.800;9.216;2022-09-01T08:46:26;11.40;;;8.07;;
609;SDS011;292;48.800;9.216;2022-09-01T08:48:58;11.17;;;7.47;;
609;SDS011;292;48.800;9.216;2022-09-01T08:51:30;9.67;;;6.37;;
609;SDS011;292;48.800;9.216;2022-09-01T08:54:03;10.20;;;6.53;;
609;SDS011;292;48.800;9.216;2022-09-01T08:56:37;15.13;;;6.70;;
609;SDS011;292;48.800;9.216;2022-09-01T08:59:07;8.97;;;6.40;;
609;SDS011;292;48.800;9.216;2022-09-01T09:01:37;11.43;;;6.97;;
609;SDS011;292;48.800;9.216;2022-09-01T09:04:14;10.50;;;6.80;;
609;SDS011;292;48.800;9.216;2022-09-01T09:06:52;10.50;;;7.07;;
609;SDS011;292;48.800;9.216;2022-09-01T09:09:30;9.10;;;6.53;;
609;SDS011;292;48.800;9.216;2022-09-01T09:12:15;8.27;;;5.83;;
609;SDS011;292;48.800;9.216;2022-09-01T09:15:06;9.70;;;6.57;;
609;SDS011;292;48.800;9.216;2022-09-01T09:17:40;7.63;;;5.60;;
609;SDS011;292;48.800;9.216;2022-09-01T09:20:12;9.30;;;5.90;;
609;SDS011;292;48.800;9.216;2022-09-01T09:22:39;11.70;;;6.50;;
609;SDS011;292;48.800;9.216;2022-09-01T09:25:08;8.30;;;5.80;;
609;SDS011;292;48.800;9.216;2022-09-01T09:27:41;9.57;;;7.00;;
609;SDS011;292;48.800;9.216;2022-09-01T09:30:10;9.17;;;6.73;;
609;SDS011;292;48.800;9.216;2022-09-01T09:32:44;11.90;;;6.07;;
609;SDS011;292;48.800;9.216;2022-09-01T09:35:19;9.40;;;6.17;;
609;SDS011;292;48.800;9.216;2022-09-01T09:37:53;8.47;;;6.10;;
609;SDS011;292;48.800;9.216;2022-09-01T09:40:21;7.77;;;5.80;;
609;SDS011;292;48.800;9.216;2022-09-01T09:43:01;10.70;;;5.90;;
609;SDS011;292;48.800;9.216;2022-09-01T09:45:31;8.30;;;6.10;;
609;SDS011;292;48.800;9.216;2022-09-01T09:48:03;7.47;;;5.97;;
609;SDS011;292;48.800;9.216;2022-09-01T09:50:33;7.03;;;4.93;;
609;SDS011;292;48.800;9.216;2022-09-01T09:53:10;10.47;;;6.10;;
609;SDS011;292;48.800;9.216;2022-09-01T09:55:50;10.97;;;6.33;;
609;SDS011;292;48.800;9.216;2022-09-01T09:58:22;9.00;;;5.87;;
609;SDS011;292;48.800;9.216;2022-09-01T10:01:00;7.17;;;5.47;;
609;SDS011;292;48.800;9.216;2022-09-01T10:03:34;8.57;;;5.57;;
609;SDS011;292;48.800;9.216;2022-09-01T10:06:08;8.50;;;6.13;;
609;SDS011;292;48.800;9.216;2022-09-01T10:08:37;6.00;;;4.60;;
609;SDS011;292;48.800;9.216;2022-09-01T10:11:09;8.47;;;5.80;;
609;SDS011;292;48.800;9.216;2022-09-01T10:13:52;5.67;;;4.80;;
609;SDS011;292;48.800;9.216;2022-09-01T10:16:22;6.57;;;4.83;;
609;SDS011;292;48.800;9.216;2022-09-01T10:18:54;12.47;;;5.67;;
609;SDS011;292;48.800;9.216;2022-09-01T10:21:26;6.77;;;4.70;;
609;SDS011;292;48.800;9.216;2022-09-01T10:23:56;6.37;;;5.10;;
609;SDS011;292;48.800;9.216;2022-09-01T10:26:25;5.50;;;4.60;;
609;SDS011;292;48.800;9.216;2022-09-01T10:29:01;11.63;;;4.67;;
609;SDS011;292;48.800;9.216;2022-09-01T10:31:32;6.10;;;4.50;;
609;SDS011;292;48.800;9.216;2022-09-01T10:34:01;5.13;;;4.20;;
609;SDS011;292;48.800;9.216;2022-09-01T10:36:35;6.30;;;4.63;;
609;SDS011;292;48.800;9.216;2022-09-01T10:39:03;8.80;;;4.37;;
609;SDS011;292;48.800;9.216;2022-09-01T10:41:43;5.07;;;3.53;;
609;SDS011;292;48.800;9.216;2022-09-01T10:44:21;10.33;;;4.13;;
609;SDS011;292;48.800;9.216;2022-09-01T10:46:54;3.93;;;3.57;;
609;SDS011;292;48.800;9.216;2022-09-01T10:55:42;5.50;;;3.93;;
609;SDS011;292;48.800;9.216;2022-09-01T10:58:19;5.80;;;4.23;;
609;SDS011;292;48.800;9.216;2022-09-01T11:00:56;4.90;;;3.60;;
609;SDS011;292;48.800;9.216;2022-09-01T11:03:48;5.00;;;4.23;;
609;SDS011;292;48.800;9.216;2022-09-01T11:09:36;4.47;;;3.77;;
609;SDS011;292;48.800;9.216;2022-09-01T11:18:03;5.77;;;4.40;;
609;SDS011;292;48.800;9.216;2022-09-01T11:20:36;7.63;;;4.03;;
609;SDS011;292;48.800;9.216;2022-09-01T11:23:06;4.83;;;3.80;;
609;SDS011;292;48.800;9.216;2022-09-01T11:25:38;5.77;;;4.27;;
609;SDS011;292;48.800;9.216;2022-09-01T11:31:10;6.70;;;4.57;;
609;SDS011;292;48.800;9.216;2022-09-01T11:33:51;12.77;;;6.60;;
609;SDS011;292;48.800;9.216;2022-09-01T11:36:28;14.20;;;6.83;;
609;SDS011;292;48.800;9.216;2022-09-01T11:39:03;9.53;;;5.60;;
609;SDS011;292;48.800;9.216;2022-09-01T11:41:33;9.90;;;4.50;;
609;SDS011;292;48.800;9.216;2022-09-01T11:44:14;4.37;;;3.63;;
609;SDS011;292;48.800;9.216;2022-09-01T11:46:47;5.87;;;4.23;;
609;SDS011;292;48.800;9.216;2022-09-01T11:49:22;3.80;;;3.07;;
609;SDS011;292;48.800;9.216;2022-09-01T11:51:53;6.47;;;4.60;;
609;SDS011;292;48.800;9.216;2022-09-01T11:54:22;8.80;;;5.53;;
609;SDS011;292;48.800;9.216;2022-09-01T11:56:50;5.13;;;3.77;;
609;SDS011;292;48.800;9.216;2022-09-01T11:59:31;9.70;;;5.80;;
609;SDS011;292;48.800;9.216;2022-09-01T12:01:59;8.40;;;4.43;;
609;SDS011;292;48.800;9.216;2022-09-01T12:04:31;5.70;;;4.10;;
609;SDS011;292;48.800;9.216;2022-09-01T12:07:03;6.00;;;3.80;;
609;SDS011;292;48.800;9.216;2022-09-01T12:09:33;5.37;;;3.97;;
609;SDS011;292;48.800;9.216;2022-09-01T12:12:02;5.80;;;3.83;;
609;SDS011;292;48.800;9.216;2022-09-01T12:14:30;8.80;;;4.00;;
609;SDS011;292;48.800;9.216;2022-09-01T12:16:58;5.90;;;4.07;;
609;SDS011;292;48.800;9.216;2022-09-01T12:19:27;9.87;;;6.27;;
609;SDS011;292;48.800;9.216;2022-09-01T12:21:59;10.50;;;5.50;;
609;SDS011;292;48.800;9.216;2022-09-01T12:24:30;8.70;;;3.53;;
609;SDS011;292;48.800;9.216;2022-09-01T12:27:01;5.00;;;3.70;;
609;SDS011;292;48.800;9.216;2022-09-01T12:29:29;6.10;;;3.20;;
609;SDS011;292;48.800;9.216;2022-09-01T12:31:57;9.27;;;4.40;;
609;SDS011;292;48.800;9.216;2022-09-01T12:34:27;7.97;;;3.20;;
609;SDS011;292;48.800;9.216;2022-09-01T12:37:18;4.77;;;3.40;;
609;SDS011;292;48.800;9.216;2022-09-01T12:39:49;6.00;;;3.30;;
609;SDS011;292;48.800;9.216;2022-09-01T12:42:23;3.60;;;2.90;;
609;SDS011;292;48.800;9.216;2022-09-01T12:44:53;4.60;;;3.03;;
609;SDS011;292;48.800;9.216;2022-09-01T12:53:16;7.43;;;3.30;;
609;SDS011;292;48.800;9.216;2022-09-01T12:56:03;3.77;;;2.90;;
609;SDS011;292;48.800;9.216;2022-09-01T12:58:42;4.43;;;3.13;;
609;SDS011;292;48.800;9.216;2022-09-01T13:01:23;3.80;;;3.00;;
609;SDS011;292;48.800;9.216;2022-09-01T13:04:05;4.70;;;3.33;;
609;SDS011;292;48.800;9.216;2022-09-01T13:06:33;4.43;;;3.20;;
609;SDS011;292;48.800;9.216;2022-09-01T13:09:01;6.97;;;3.83;;
609;SDS011;292;48.800;9.216;2022-09-01T13:11:29;5.27;;;4.27;;
609;SDS011;292;48.800;9.216;2022-09-01T13:13:56;4.90;;;3.90;;
609;SDS011;292;48.800;9.216;2022-09-01T13:16:23;7.30;;;5.23;;
609;SDS011;292;48.800;9.216;2022-09-01T13:18:50;7.17;;;4.77;;
609;SDS011;292;48.800;9.216;2022-09-01T13:21:17;7.43;;;4.47;;
609;SDS011;292;48.800;9.216;2022-09-01T13:23:44;7.03;;;4.00;;
609;SDS011;292;48.800;9.216;2022-09-01T13:26:13;6.00;;;3.77;;
609;SDS011;292;48.800;9.216;2022-09-01T13:28:40;6.17;;;4.10;;
609;SDS011;292;48.800;9.216;2022-09-01T13:31:07;7.70;;;3.60;;
609;SDS011;292;48.800;9.216;2022-09-01T13:33:34;4.50;;;3.63;;
609;SDS011;292;48.800;9.216;2022-09-01T13:36:01;5.50;;;3.67;;
609;SDS011;292;48.800;9.216;2022-09-01T13:38:29;3.67;;;3.33;;
609;SDS011;292;48.800;9.216;2022-09-01T13:40:57;4.27;;;3.53;;
609;SDS011;292;48.800;9.216;2022-09-01T13:43:27;7.67;;;3.60;;
609;SDS011;292;48.800;9.216;2022-09-01T13:45:55;10.53;;;3.70;;
609;SDS011;292;48.800;9.216;2022-09-01T13:48:22;8.90;;;3.87;;
609;SDS011;292;48.800;9.216;2022-09-01T13:50:50;3.70;;;3.43;;
609;SDS011;292;48.800;9.216;2022-09-01T13:53:18;4.80;;;3.77;;
609;SDS011;292;48.800;9.216;2022-09-01T13:55:45;3.87;;;3.10;;
609;SDS011;292;48.800;9.216;2022-09-01T13:58:13;3.73;;;3.07;;
609;SDS011;292;48.800;9.216;2022-09-01T14:00:44;4.57;;;3.17;;
609;SDS011;292;48.800;9.216;2022-09-01T14:03:14;2.97;;;2.77;;
609;SDS011;292;48.800;9.216;2022-09-01T14:05:44;7.33;;;3.10;;
609;SDS011;292;48.800;9.216;2022-09-01T14:08:13;3.70;;;3.03;;
609;SDS011;292;48.800;9.216;2022-09-01T14:10:43;3.63;;;2.43;;
609;SDS011;292;48.800;9.216;2022-09-01T14:13:13;5.60;;;2.80;;
609;SDS011;292;48.800;9.216;2022-09-01T14:15:41;3.80;;;2.80;;
609;SDS011;292;48.800;9.216;2022-09-01T14:18:12;4.93;;;3.10;;
609;SDS011;292;48.800;9.216;2022-09-01T14:20:41;3.70;;;3.10;;
609;SDS011;292;48.800;9.216;2022-09-01T14:23:11;4.40;;;3.37;;
609;SDS011;292;48.800;9.216;2022-09-01T14:25:41;7.03;;;4.10;;
609;SDS011;292;48.800;9.216;2022-09-01T14:28:09;3.83;;;2.83;;
609;SDS011;292;48.800;9.216;2022-09-01T14:30:38;7.47;;;3.37;;
609;SDS011;292;48.800;9.216;2022-09-01T14:33:08;7.20;;;3.00;;
609;SDS011;292;48.800;9.216;2022-09-01T14:35:38;3.33;;;2.80;;
609;SDS011;292;48.800;9.216;2022-09-01T14:38:13;3.53;;;2.97;;
609;SDS011;292;48.800;9.216;2022-09-01T14:40:42;4.03;;;2.87;;
609;SDS011;292;48.800;9.216;2022-09-01T14:43:13;2.67;;;2.37;;
609;SDS011;292;48.800;9.216;2022-09-01T14:45:41;2.93;;;2.53;;
609;SDS011;292;48.800;9.216;2022-09-01T14:48:13;4.13;;;2.97;;
609;SDS011;292;48.800;9.216;2022-09-01T14:50:42;3.40;;;2.50;;
609;SDS011;292;48.800;9.216;2022-09-01T14:53:13;6.77;;;3.30;;
609;SDS011;292;48.800;9.216;2022-09-01T14:55:40;4.40;;;2.97;;
609;SDS011;292;48.800;9.216;2022-09-01T14:58:07;4.03;;;3.03;;
609;SDS011;292;48.800;9.216;2022-09-01T15:00:34;4.00;;;2.73;;
609;SDS011;292;48.800;9.216;2022-09-01T15:03:03;3.37;;;2.33;;
609;SDS011;292;48.800;9.216;2022-09-01T15:05:34;3.50;;;2.63;;
609;SDS011;292;48.800;9.216;2022-09-01T15:08:01;2.40;;;2.13;;
609;SDS011;292;48.800;9.216;2022-09-01T15:10:29;4.40;;;2.40;;
609;SDS011;292;48.800;9.216;2022-09-01T15:12:57;5.23;;;2.60;;
609;SDS011;292;48.800;9.216;2022-09-01T15:15:26;5.90;;;2.53;;
609;SDS011;292;48.800;9.216;2022-09-01T15:17:54;3.60;;;2.40;;
609;SDS011;292;48.800;9.216;2022-09-01T15:20:22;3.37;;;2.23;;
609;SDS011;292;48.800;9.216;2022-09-01T15:23:09;4.90;;;2.70;;
609;SDS011;292;48.800;9.216;2022-09-01T15:25:40;5.40;;;3.10;;
609;SDS011;292;48.800;9.216;2022-09-01T15:28:08;3.30;;;2.83;;
609;SDS011;292;48.800;9.216;2022-09-01T15:30:35;4.47;;;2.77;;
609;SDS011;292;48.800;9.216;2022-09-01T15:33:04;7.53;;;2.73;;
609;SDS011;292;48.800;9.216;2022-09-01T15:35:32;7.80;;;2.37;;
609;SDS011;292;48.800;9.216;2022-09-01T15:37:59;3.90;;;2.30;;
609;SDS011;292;48.800;9.216;2022-09-01T15:40:28;3.73;;;2.63;;
609;SDS011;292;48.800;9.216;2022-09-01T15:42:56;10.77;;;6.70;;
609;SDS011;292;48.800;9.216;2022-09-01T15:45:25;6.40;;;4.50;;
609;SDS011;292;48.800;9.216;2022-09-01T15:47:53;5.20;;;2.83;;
609;SDS011;292;48.800;9.216;2022-09-01T15:50:21;5.80;;;2.77;;
609;SDS011;292;48.800;9.216;2022-09-01T15:52:50;5.17;;;2.70;;
609;SDS011;292;48.800;9.216;2022-09-01T15:55:19;8.33;;;3.30;;
609;SDS011;292;48.800;9.216;2022-09-01T15:57:49;4.80;;;2.77;;
609;SDS011;292;48.800;9.216;2022-09-01T16:00:19;3.00;;;2.43;;
609;SDS011;292;48.800;9.216;2022-09-01T16:02:48;3.20;;;2.50;;
609;SDS011;292;48.800;9.216;2022-09-01T16:05:15;3.50;;;2.63;;
609;SDS011;292;48.800;9.216;2022-09-01T16:07:43;3.53;;;2.67;;
609;SDS011;292;48.800;9.216;2022-09-01T16:10:10;5.50;;;2.50;;
609;SDS011;292;48.800;9.216;2022-09-01T16:12:38;5.30;;;2.30;;